sensor_id;sensor_type;location;lat;lon;timestamp;P1;durP1;ratioP1;P2;durP2;ratioP2
66721;SDS011;53633;49.932;10.884;2023-05-09T00:00:14;6.95;;;3.25;;
66721;SDS011;53633;49.932;10.884;2023-05-09T00:02:41;7.05;;;3.15;;
66721;SDS011;53633;49.932;10.884;2023-05-09T00:05:08;6.80;;;2.95;;
66721;SDS011;53633;49.932;10.884;2023-05-09T00:07:34;8.65;;;2.90;;
66721;SDS011;53633;49.932;10.884;2023-05-09T00:10:03;7.93;;;3.37;;
66721;SDS011;53633;49.932;10.884;2023-05-09T00:12:30;8.68;;;3.28;;
66721;SDS011;53633;49.932;10.884;2023-05-09T00:14:57;7.63;;;3.30;;
66721;SDS011;53633;49.932;10.884;2023-05-09T00:17:23;7.20;;;3.55;;
66721;SDS011;53633;49.932;10.884;2023-05-09T00:19:50;7.85;;;3.22;;
66721;SDS011;53633;49.932;10.884;2023-05-09T00:22:17;7.57;;;3.60;;
66721;SDS011;53633;49.932;10.884;2023-05-09T00:24:45;8.10;;;3.92;;
66721;SDS011;53633;49.932;10.884;2023-05-09T00:27:13;8.43;;;3.58;;
66721;SDS011;53633;49.932;10.884;2023-05-09T00:29:40;8.13;;;4.28;;
66721;SDS011;53633;49.932;10.884;2023-05-09T00:32:06;8.73;;;4.72;;
66721;SDS011;53633;49.932;10.884;2023-05-09T00:34:33;9.50;;;4.23;;
66721;SDS011;53633;49.932;10.884;2023-05-09T00:37:00;9.60;;;4.40;;
66721;SDS011;53633;49.932;10.884;2023-05-09T00:39:27;10.90;;;4.07;;
66721;SDS011;53633;49.932;10.884;2023-05-09T00:41:54;7.60;;;3.60;;
66721;SDS011;53633;49.932;10.884;2023-05-09T00:44:23;8.68;;;3.60;;
66721;SDS011;53633;49.932;10.884;2023-05-09T00:46:49;8.53;;;3.60;;
66721;SDS011;53633;49.932;10.884;2023-05-09T00:49:16;8.43;;;3.58;;
66721;SDS011;53633;49.932;10.884;2023-05-09T00:51:43;7.18;;;3.75;;
66721;SDS011;53633;49.932;10.884;2023-05-09T00:54:09;7.22;;;3.70;;
66721;SDS011;53633;49.932;10.884;2023-05-09T00:56:36;7.57;;;3.40;;
66721;SDS011;53633;49.932;10.884;2023-05-09T00:59:03;7.50;;;3.80;;
66721;SDS011;53633;49.932;10.884;2023-05-09T01:01:31;9.55;;;4.22;;
66721;SDS011;53633;49.932;10.884;2023-05-09T01:03:58;7.65;;;3.75;;
66721;SDS011;53633;49.932;10.884;2023-05-09T01:06:27;7.80;;;3.95;;
66721;SDS011;53633;49.932;10.884;2023-05-09T01:09:02;7.93;;;3.22;;
66721;SDS011;53633;49.932;10.884;2023-05-09T01:11:35;8.50;;;3.77;;
66721;SDS011;53633;49.932;10.884;2023-05-09T01:14:11;7.95;;;3.38;;
66721;SDS011;53633;49.932;10.884;2023-05-09T01:16:48;7.45;;;3.25;;
66721;SDS011;53633;49.932;10.884;2023-05-09T01:19:35;8.70;;;3.75;;
66721;SDS011;53633;49.932;10.884;2023-05-09T01:22:19;8.40;;;3.13;;
66721;SDS011;53633;49.932;10.884;2023-05-09T01:24:57;7.03;;;3.37;;
66721;SDS011;53633;49.932;10.884;2023-05-09T01:27:33;8.75;;;3.30;;
66721;SDS011;53633;49.932;10.884;2023-05-09T01:30:07;7.85;;;3.63;;
66721;SDS011;53633;49.932;10.884;2023-05-09T01:32:37;7.97;;;3.50;;
66721;SDS011;53633;49.932;10.884;2023-05-09T01:35:05;8.05;;;3.72;;
66721;SDS011;53633;49.932;10.884;2023-05-09T01:37:34;8.00;;;3.60;;
66721;SDS011;53633;49.932;10.884;2023-05-09T01:40:05;6.97;;;3.53;;
66721;SDS011;53633;49.932;10.884;2023-05-09T01:42:35;7.80;;;3.58;;
66721;SDS011;53633;49.932;10.884;2023-05-09T01:45:07;7.60;;;3.97;;
66721;SDS011;53633;49.932;10.884;2023-05-09T01:47:36;8.65;;;4.00;;
66721;SDS011;53633;49.932;10.884;2023-05-09T01:50:04;7.17;;;3.63;;
66721;SDS011;53633;49.932;10.884;2023-05-09T01:52:34;7.88;;;3.67;;
66721;SDS011;53633;49.932;10.884;2023-05-09T01:55:02;7.72;;;3.42;;
66721;SDS011;53633;49.932;10.884;2023-05-09T01:57:31;9.02;;;3.90;;
66721;SDS011;53633;49.932;10.884;2023-05-09T02:00:00;7.72;;;3.70;;
66721;SDS011;53633;49.932;10.884;2023-05-09T02:02:28;8.23;;;3.43;;
66721;SDS011;53633;49.932;10.884;2023-05-09T02:04:55;9.55;;;4.07;;
66721;SDS011;53633;49.932;10.884;2023-05-09T02:07:23;7.80;;;4.03;;
66721;SDS011;53633;49.932;10.884;2023-05-09T02:09:51;8.63;;;4.20;;
66721;SDS011;53633;49.932;10.884;2023-05-09T02:12:20;7.82;;;3.50;;
66721;SDS011;53633;49.932;10.884;2023-05-09T02:14:47;7.07;;;3.33;;
66721;SDS011;53633;49.932;10.884;2023-05-09T02:17:14;9.60;;;3.70;;
66721;SDS011;53633;49.932;10.884;2023-05-09T02:19:42;8.30;;;4.18;;
66721;SDS011;53633;49.932;10.884;2023-05-09T02:22:09;10.88;;;3.95;;
66721;SDS011;53633;49.932;10.884;2023-05-09T02:24:37;10.73;;;4.10;;
66721;SDS011;53633;49.932;10.884;2023-05-09T02:27:05;8.23;;;3.67;;
66721;SDS011;53633;49.932;10.884;2023-05-09T02:29:33;7.25;;;3.78;;
66721;SDS011;53633;49.932;10.884;2023-05-09T02:32:01;8.88;;;3.97;;
66721;SDS011;53633;49.932;10.884;2023-05-09T02:34:29;9.00;;;4.30;;
66721;SDS011;53633;49.932;10.884;2023-05-09T02:36:58;8.55;;;4.05;;
66721;SDS011;53633;49.932;10.884;2023-05-09T02:39:25;8.50;;;3.80;;
66721;SDS011;53633;49.932;10.884;2023-05-09T02:41:52;8.65;;;4.32;;
66721;SDS011;53633;49.932;10.884;2023-05-09T02:44:18;11.52;;;4.20;;
66721;SDS011;53633;49.932;10.884;2023-05-09T02:46:45;8.63;;;3.80;;
66721;SDS011;53633;49.932;10.884;2023-05-09T02:49:11;8.52;;;3.85;;
66721;SDS011;53633;49.932;10.884;2023-05-09T02:51:56;9.53;;;4.43;;
66721;SDS011;53633;49.932;10.884;2023-05-09T02:54:24;9.30;;;4.03;;
66721;SDS011;53633;49.932;10.884;2023-05-09T02:56:51;8.63;;;4.28;;
66721;SDS011;53633;49.932;10.884;2023-05-09T02:59:17;8.82;;;3.67;;
66721;SDS011;53633;49.932;10.884;2023-05-09T03:01:44;10.77;;;4.05;;
66721;SDS011;53633;49.932;10.884;2023-05-09T03:04:11;9.80;;;4.20;;
66721;SDS011;53633;49.932;10.884;2023-05-09T03:06:38;10.77;;;4.22;;
66721;SDS011;53633;49.932;10.884;2023-05-09T03:09:05;9.00;;;4.18;;
66721;SDS011;53633;49.932;10.884;2023-05-09T03:11:33;9.98;;;3.90;;
66721;SDS011;53633;49.932;10.884;2023-05-09T03:13:59;9.73;;;4.40;;
66721;SDS011;53633;49.932;10.884;2023-05-09T03:16:26;8.93;;;4.03;;
66721;SDS011;53633;49.932;10.884;2023-05-09T03:18:53;9.02;;;4.15;;
66721;SDS011;53633;49.932;10.884;2023-05-09T03:21:19;8.68;;;3.92;;
66721;SDS011;53633;49.932;10.884;2023-05-09T03:23:46;9.32;;;4.18;;
66721;SDS011;53633;49.932;10.884;2023-05-09T03:26:13;8.93;;;4.47;;
66721;SDS011;53633;49.932;10.884;2023-05-09T03:28:41;10.30;;;4.50;;
66721;SDS011;53633;49.932;10.884;2023-05-09T03:31:07;9.55;;;4.40;;
66721;SDS011;53633;49.932;10.884;2023-05-09T03:33:34;8.88;;;4.22;;
66721;SDS011;53633;49.932;10.884;2023-05-09T03:36:01;7.70;;;3.72;;
66721;SDS011;53633;49.932;10.884;2023-05-09T03:38:27;10.13;;;4.80;;
66721;SDS011;53633;49.932;10.884;2023-05-09T03:40:54;10.40;;;4.97;;
66721;SDS011;53633;49.932;10.884;2023-05-09T03:43:21;10.70;;;4.18;;
66721;SDS011;53633;49.932;10.884;2023-05-09T03:45:49;9.80;;;4.47;;
66721;SDS011;53633;49.932;10.884;2023-05-09T03:48:16;9.45;;;4.55;;
66721;SDS011;53633;49.932;10.884;2023-05-09T03:50:43;9.52;;;4.30;;
66721;SDS011;53633;49.932;10.884;2023-05-09T03:53:09;9.13;;;4.23;;
66721;SDS011;53633;49.932;10.884;2023-05-09T03:55:36;11.50;;;4.45;;
66721;SDS011;53633;49.932;10.884;2023-05-09T03:58:03;13.02;;;4.90;;
66721;SDS011;53633;49.932;10.884;2023-05-09T04:00:29;15.77;;;4.82;;
66721;SDS011;53633;49.932;10.884;2023-05-09T04:02:57;9.18;;;4.13;;
66721;SDS011;53633;49.932;10.884;2023-05-09T04:05:24;9.80;;;4.50;;
66721;SDS011;53633;49.932;10.884;2023-05-09T04:07:51;8.82;;;4.38;;
66721;SDS011;53633;49.932;10.884;2023-05-09T04:10:18;10.93;;;4.78;;
66721;SDS011;53633;49.932;10.884;2023-05-09T04:12:44;10.07;;;4.50;;
66721;SDS011;53633;49.932;10.884;2023-05-09T04:15:11;9.73;;;4.50;;
66721;SDS011;53633;49.932;10.884;2023-05-09T04:17:38;11.87;;;4.20;;
66721;SDS011;53633;49.932;10.884;2023-05-09T04:20:07;9.38;;;4.35;;
66721;SDS011;53633;49.932;10.884;2023-05-09T04:22:35;8.63;;;4.30;;
66721;SDS011;53633;49.932;10.884;2023-05-09T04:25:02;9.45;;;4.28;;
66721;SDS011;53633;49.932;10.884;2023-05-09T04:27:29;8.73;;;4.45;;
66721;SDS011;53633;49.932;10.884;2023-05-09T04:29:55;9.23;;;4.60;;
66721;SDS011;53633;49.932;10.884;2023-05-09T04:32:22;15.35;;;4.97;;
66721;SDS011;53633;49.932;10.884;2023-05-09T04:34:49;10.85;;;4.40;;
66721;SDS011;53633;49.932;10.884;2023-05-09T04:37:17;13.05;;;5.22;;
66721;SDS011;53633;49.932;10.884;2023-05-09T04:39:44;12.32;;;4.75;;
66721;SDS011;53633;49.932;10.884;2023-05-09T04:42:10;10.73;;;4.50;;
66721;SDS011;53633;49.932;10.884;2023-05-09T04:44:37;11.40;;;4.43;;
66721;SDS011;53633;49.932;10.884;2023-05-09T04:47:03;10.23;;;4.72;;
66721;SDS011;53633;49.932;10.884;2023-05-09T04:49:30;10.43;;;4.28;;
66721;SDS011;53633;49.932;10.884;2023-05-09T04:51:57;11.77;;;4.22;;
66721;SDS011;53633;49.932;10.884;2023-05-09T04:54:25;9.40;;;4.20;;
66721;SDS011;53633;49.932;10.884;2023-05-09T04:56:51;13.48;;;4.47;;
66721;SDS011;53633;49.932;10.884;2023-05-09T04:59:21;8.27;;;4.25;;
66721;SDS011;53633;49.932;10.884;2023-05-09T05:01:48;7.72;;;3.88;;
66721;SDS011;53633;49.932;10.884;2023-05-09T05:04:15;12.57;;;4.38;;
66721;SDS011;53633;49.932;10.884;2023-05-09T05:06:42;8.07;;;3.70;;
66721;SDS011;53633;49.932;10.884;2023-05-09T05:09:08;9.30;;;3.80;;
66721;SDS011;53633;49.932;10.884;2023-05-09T05:11:37;10.27;;;4.40;;
66721;SDS011;53633;49.932;10.884;2023-05-09T05:14:03;8.77;;;4.10;;
66721;SDS011;53633;49.932;10.884;2023-05-09T05:16:30;7.60;;;4.15;;
66721;SDS011;53633;49.932;10.884;2023-05-09T05:18:57;8.87;;;4.10;;
66721;SDS011;53633;49.932;10.884;2023-05-09T05:21:23;13.73;;;4.68;;
66721;SDS011;53633;49.932;10.884;2023-05-09T05:23:50;7.88;;;4.55;;
66721;SDS011;53633;49.932;10.884;2023-05-09T05:26:16;7.00;;;3.80;;
66721;SDS011;53633;49.932;10.884;2023-05-09T05:28:45;7.25;;;4.03;;
66721;SDS011;53633;49.932;10.884;2023-05-09T05:31:11;8.60;;;3.90;;
66721;SDS011;53633;49.932;10.884;2023-05-09T05:33:38;9.23;;;4.50;;
66721;SDS011;53633;49.932;10.884;2023-05-09T05:36:05;9.40;;;4.68;;
66721;SDS011;53633;49.932;10.884;2023-05-09T05:38:32;9.48;;;4.88;;
66721;SDS011;53633;49.932;10.884;2023-05-09T05:40:59;9.02;;;4.53;;
66721;SDS011;53633;49.932;10.884;2023-05-09T05:43:25;10.10;;;5.10;;
66721;SDS011;53633;49.932;10.884;2023-05-09T05:45:54;8.80;;;5.60;;
66721;SDS011;53633;49.932;10.884;2023-05-09T05:48:20;8.35;;;5.05;;
66721;SDS011;53633;49.932;10.884;2023-05-09T05:50:47;8.27;;;4.55;;
66721;SDS011;53633;49.932;10.884;2023-05-09T05:53:14;8.90;;;5.18;;
66721;SDS011;53633;49.932;10.884;2023-05-09T05:55:41;7.77;;;4.40;;
66721;SDS011;53633;49.932;10.884;2023-05-09T05:58:07;10.23;;;5.05;;
66721;SDS011;53633;49.932;10.884;2023-05-09T06:00:34;9.35;;;5.03;;
66721;SDS011;53633;49.932;10.884;2023-05-09T06:03:02;8.10;;;4.88;;
66721;SDS011;53633;49.932;10.884;2023-05-09T06:05:29;8.77;;;5.60;;
66721;SDS011;53633;49.932;10.884;2023-05-09T06:07:56;8.27;;;4.67;;
66721;SDS011;53633;49.932;10.884;2023-05-09T06:10:22;8.73;;;4.35;;
66721;SDS011;53633;49.932;10.884;2023-05-09T06:12:49;7.45;;;4.32;;
66721;SDS011;53633;49.932;10.884;2023-05-09T06:15:16;8.38;;;4.38;;
66721;SDS011;53633;49.932;10.884;2023-05-09T06:17:43;9.15;;;4.95;;
66721;SDS011;53633;49.932;10.884;2023-05-09T06:20:11;10.87;;;4.87;;
66721;SDS011;53633;49.932;10.884;2023-05-09T06:22:38;10.57;;;4.60;;
66721;SDS011;53633;49.932;10.884;2023-05-09T06:25:05;9.18;;;5.30;;
66721;SDS011;53633;49.932;10.884;2023-05-09T06:27:35;8.68;;;4.50;;
66721;SDS011;53633;49.932;10.884;2023-05-09T06:30:02;9.43;;;5.35;;
66721;SDS011;53633;49.932;10.884;2023-05-09T06:32:49;8.30;;;4.97;;
66721;SDS011;53633;49.932;10.884;2023-05-09T06:35:17;11.05;;;5.85;;
66721;SDS011;53633;49.932;10.884;2023-05-09T06:37:44;9.18;;;5.65;;
66721;SDS011;53633;49.932;10.884;2023-05-09T06:40:14;9.38;;;5.20;;
66721;SDS011;53633;49.932;10.884;2023-05-09T06:42:41;9.73;;;5.50;;
66721;SDS011;53633;49.932;10.884;2023-05-09T06:45:08;9.53;;;5.77;;
66721;SDS011;53633;49.932;10.884;2023-05-09T06:47:35;9.80;;;5.25;;
66721;SDS011;53633;49.932;10.884;2023-05-09T06:50:02;9.45;;;5.75;;
66721;SDS011;53633;49.932;10.884;2023-05-09T06:52:31;9.90;;;5.15;;
66721;SDS011;53633;49.932;10.884;2023-05-09T06:54:57;10.02;;;5.43;;
66721;SDS011;53633;49.932;10.884;2023-05-09T06:57:24;8.23;;;4.97;;
66721;SDS011;53633;49.932;10.884;2023-05-09T06:59:51;8.18;;;4.63;;
66721;SDS011;53633;49.932;10.884;2023-05-09T07:02:18;8.50;;;4.82;;
66721;SDS011;53633;49.932;10.884;2023-05-09T07:04:45;9.20;;;4.85;;
66721;SDS011;53633;49.932;10.884;2023-05-09T07:07:11;9.38;;;5.32;;
66721;SDS011;53633;49.932;10.884;2023-05-09T07:12:36;9.45;;;5.03;;
66721;SDS011;53633;49.932;10.884;2023-05-09T07:15:03;10.48;;;5.43;;
66721;SDS011;53633;49.932;10.884;2023-05-09T07:17:30;7.30;;;5.07;;
66721;SDS011;53633;49.932;10.884;2023-05-09T07:19:56;9.48;;;5.43;;
66721;SDS011;53633;49.932;10.884;2023-05-09T07:22:23;9.30;;;4.37;;
66721;SDS011;53633;49.932;10.884;2023-05-09T07:24:50;10.30;;;5.32;;
66721;SDS011;53633;49.932;10.884;2023-05-09T07:27:18;9.60;;;4.97;;
66721;SDS011;53633;49.932;10.884;2023-05-09T07:29:45;8.18;;;4.82;;
66721;SDS011;53633;49.932;10.884;2023-05-09T07:32:11;7.85;;;4.78;;
66721;SDS011;53633;49.932;10.884;2023-05-09T07:34:38;7.70;;;4.60;;
66721;SDS011;53633;49.932;10.884;2023-05-09T07:37:05;9.98;;;5.57;;
66721;SDS011;53633;49.932;10.884;2023-05-09T07:39:32;7.97;;;5.38;;
66721;SDS011;53633;49.932;10.884;2023-05-09T07:41:58;7.88;;;5.25;;
66721;SDS011;53633;49.932;10.884;2023-05-09T07:44:26;8.25;;;4.90;;
66721;SDS011;53633;49.932;10.884;2023-05-09T07:46:53;7.47;;;4.60;;
66721;SDS011;53633;49.932;10.884;2023-05-09T07:49:20;9.88;;;3.92;;
66721;SDS011;53633;49.932;10.884;2023-05-09T07:51:46;8.90;;;4.55;;
66721;SDS011;53633;49.932;10.884;2023-05-09T07:54:13;7.05;;;3.88;;
66721;SDS011;53633;49.932;10.884;2023-05-09T07:56:40;9.23;;;3.95;;
66721;SDS011;53633;49.932;10.884;2023-05-09T07:59:06;8.77;;;4.00;;
66721;SDS011;53633;49.932;10.884;2023-05-09T08:01:35;6.25;;;3.20;;
66721;SDS011;53633;49.932;10.884;2023-05-09T08:04:01;9.27;;;4.00;;
66721;SDS011;53633;49.932;10.884;2023-05-09T08:06:28;9.25;;;3.53;;
66721;SDS011;53633;49.932;10.884;2023-05-09T08:08:55;8.02;;;3.50;;
66721;SDS011;53633;49.932;10.884;2023-05-09T08:11:21;6.77;;;3.30;;
66721;SDS011;53633;49.932;10.884;2023-05-09T08:13:48;8.00;;;3.40;;
66721;SDS011;53633;49.932;10.884;2023-05-09T08:16:15;6.63;;;3.55;;
66721;SDS011;53633;49.932;10.884;2023-05-09T08:18:43;7.25;;;3.30;;
66721;SDS011;53633;49.932;10.884;2023-05-09T08:21:10;6.95;;;3.70;;
66721;SDS011;53633;49.932;10.884;2023-05-09T08:23:37;5.90;;;3.40;;
66721;SDS011;53633;49.932;10.884;2023-05-09T08:26:04;6.97;;;3.33;;
66721;SDS011;53633;49.932;10.884;2023-05-09T08:28:31;6.47;;;3.55;;
66721;SDS011;53633;49.932;10.884;2023-05-09T08:30:57;6.93;;;3.33;;
66721;SDS011;53633;49.932;10.884;2023-05-09T08:33:25;8.45;;;3.20;;
66721;SDS011;53633;49.932;10.884;2023-05-09T08:35:53;7.07;;;3.70;;
66721;SDS011;53633;49.932;10.884;2023-05-09T08:38:20;8.05;;;3.67;;
66721;SDS011;53633;49.932;10.884;2023-05-09T08:40:46;7.00;;;3.40;;
66721;SDS011;53633;49.932;10.884;2023-05-09T08:43:13;5.80;;;2.80;;
66721;SDS011;53633;49.932;10.884;2023-05-09T08:45:41;5.95;;;3.22;;
66721;SDS011;53633;49.932;10.884;2023-05-09T08:48:12;5.50;;;2.80;;
66721;SDS011;53633;49.932;10.884;2023-05-09T08:50:40;8.82;;;3.10;;
66721;SDS011;53633;49.932;10.884;2023-05-09T08:53:09;7.95;;;3.30;;
66721;SDS011;53633;49.932;10.884;2023-05-09T08:55:36;7.40;;;3.35;;
66721;SDS011;53633;49.932;10.884;2023-05-09T08:58:03;6.82;;;3.08;;
66721;SDS011;53633;49.932;10.884;2023-05-09T09:00:30;5.80;;;2.43;;
66721;SDS011;53633;49.932;10.884;2023-05-09T09:02:59;5.68;;;2.80;;
66721;SDS011;53633;49.932;10.884;2023-05-09T09:05:27;5.78;;;3.10;;
66721;SDS011;53633;49.932;10.884;2023-05-09T09:07:59;5.68;;;2.47;;
66721;SDS011;53633;49.932;10.884;2023-05-09T09:10:30;5.55;;;2.88;;
66721;SDS011;53633;49.932;10.884;2023-05-09T09:12:58;7.00;;;2.87;;
66721;SDS011;53633;49.932;10.884;2023-05-09T09:15:27;8.75;;;2.88;;
66721;SDS011;53633;49.932;10.884;2023-05-09T09:17:55;4.90;;;2.70;;
66721;SDS011;53633;49.932;10.884;2023-05-09T09:20:26;5.80;;;2.67;;
66721;SDS011;53633;49.932;10.884;2023-05-09T09:22:58;6.30;;;2.85;;
66721;SDS011;53633;49.932;10.884;2023-05-09T09:25:25;6.80;;;2.70;;
66721;SDS011;53633;49.932;10.884;2023-05-09T09:27:53;5.80;;;2.70;;
66721;SDS011;53633;49.932;10.884;2023-05-09T09:30:22;4.57;;;2.50;;
66721;SDS011;53633;49.932;10.884;2023-05-09T09:32:57;5.18;;;2.33;;
66721;SDS011;53633;49.932;10.884;2023-05-09T09:35:27;5.68;;;3.00;;
66721;SDS011;53633;49.932;10.884;2023-05-09T09:37:57;6.70;;;2.83;;
66721;SDS011;53633;49.932;10.884;2023-05-09T09:40:25;6.13;;;2.90;;
66721;SDS011;53633;49.932;10.884;2023-05-09T09:42:53;6.35;;;3.10;;
66721;SDS011;53633;49.932;10.884;2023-05-09T09:45:20;5.38;;;3.30;;
66721;SDS011;53633;49.932;10.884;2023-05-09T09:47:47;5.00;;;2.78;;
66721;SDS011;53633;49.932;10.884;2023-05-09T09:50:15;6.13;;;3.00;;
66721;SDS011;53633;49.932;10.884;2023-05-09T09:52:44;6.40;;;3.35;;
66721;SDS011;53633;49.932;10.884;2023-05-09T09:55:14;6.30;;;2.70;;
66721;SDS011;53633;49.932;10.884;2023-05-09T09:57:41;5.18;;;2.70;;
66721;SDS011;53633;49.932;10.884;2023-05-09T10:00:10;5.43;;;2.60;;
66721;SDS011;53633;49.932;10.884;2023-05-09T10:02:45;7.00;;;2.30;;
66721;SDS011;53633;49.932;10.884;2023-05-09T10:05:17;6.60;;;2.50;;
66721;SDS011;53633;49.932;10.884;2023-05-09T10:07:44;6.50;;;2.63;;
66721;SDS011;53633;49.932;10.884;2023-05-09T10:10:11;4.43;;;2.25;;
66721;SDS011;53633;49.932;10.884;2023-05-09T10:12:38;6.38;;;2.45;;
66721;SDS011;53633;49.932;10.884;2023-05-09T10:15:08;5.80;;;2.17;;
66721;SDS011;53633;49.932;10.884;2023-05-09T10:17:37;7.78;;;2.38;;
66721;SDS011;53633;49.932;10.884;2023-05-09T10:20:04;6.05;;;2.50;;
66721;SDS011;53633;49.932;10.884;2023-05-09T10:22:32;5.22;;;2.28;;
66721;SDS011;53633;49.932;10.884;2023-05-09T10:25:02;4.47;;;1.90;;
66721;SDS011;53633;49.932;10.884;2023-05-09T10:27:34;6.00;;;1.80;;
66721;SDS011;53633;49.932;10.884;2023-05-09T10:30:02;4.38;;;2.00;;
66721;SDS011;53633;49.932;10.884;2023-05-09T10:32:36;5.57;;;2.30;;
66721;SDS011;53633;49.932;10.884;2023-05-09T10:35:07;4.63;;;2.28;;
66721;SDS011;53633;49.932;10.884;2023-05-09T10:37:36;4.95;;;2.20;;
66721;SDS011;53633;49.932;10.884;2023-05-09T10:40:03;5.63;;;2.10;;
66721;SDS011;53633;49.932;10.884;2023-05-09T10:42:31;7.85;;;1.77;;
66721;SDS011;53633;49.932;10.884;2023-05-09T10:44:57;5.57;;;2.20;;
66721;SDS011;53633;49.932;10.884;2023-05-09T10:47:24;5.38;;;1.75;;
66721;SDS011;53633;49.932;10.884;2023-05-09T10:49:54;4.22;;;1.80;;
66721;SDS011;53633;49.932;10.884;2023-05-09T10:52:21;5.63;;;1.87;;
66721;SDS011;53633;49.932;10.884;2023-05-09T10:54:57;4.78;;;1.77;;
66721;SDS011;53633;49.932;10.884;2023-05-09T10:57:24;4.75;;;2.00;;
66721;SDS011;53633;49.932;10.884;2023-05-09T10:59:51;4.30;;;2.03;;
66721;SDS011;53633;49.932;10.884;2023-05-09T11:02:20;6.13;;;2.13;;
66721;SDS011;53633;49.932;10.884;2023-05-09T11:04:47;4.70;;;1.87;;
66721;SDS011;53633;49.932;10.884;2023-05-09T11:07:33;5.50;;;1.90;;
66721;SDS011;53633;49.932;10.884;2023-05-09T11:10:05;5.03;;;2.20;;
66721;SDS011;53633;49.932;10.884;2023-05-09T11:12:33;4.88;;;2.17;;
66721;SDS011;53633;49.932;10.884;2023-05-09T11:15:03;4.65;;;2.00;;
66721;SDS011;53633;49.932;10.884;2023-05-09T11:17:31;5.50;;;1.90;;
66721;SDS011;53633;49.932;10.884;2023-05-09T11:20:03;4.38;;;1.60;;
66721;SDS011;53633;49.932;10.884;2023-05-09T11:22:38;5.40;;;2.17;;
66721;SDS011;53633;49.932;10.884;2023-05-09T11:25:06;5.18;;;1.70;;
66721;SDS011;53633;49.932;10.884;2023-05-09T11:27:36;5.05;;;2.50;;
66721;SDS011;53633;49.932;10.884;2023-05-09T11:30:05;7.20;;;1.87;;
66721;SDS011;53633;49.932;10.884;2023-05-09T11:32:33;5.32;;;1.90;;
66721;SDS011;53633;49.932;10.884;2023-05-09T11:35:06;5.38;;;2.00;;
66721;SDS011;53633;49.932;10.884;2023-05-09T11:37:38;5.10;;;1.90;;
66721;SDS011;53633;49.932;10.884;2023-05-09T11:40:10;5.18;;;2.10;;
66721;SDS011;53633;49.932;10.884;2023-05-09T11:42:40;5.37;;;2.07;;
66721;SDS011;53633;49.932;10.884;2023-05-09T11:45:09;7.05;;;1.90;;
66721;SDS011;53633;49.932;10.884;2023-05-09T11:47:37;3.45;;;1.60;;
66721;SDS011;53633;49.932;10.884;2023-05-09T11:50:05;5.80;;;1.80;;
66721;SDS011;53633;49.932;10.884;2023-05-09T11:52:33;4.50;;;1.63;;
66721;SDS011;53633;49.932;10.884;2023-05-09T11:55:01;4.53;;;1.57;;
66721;SDS011;53633;49.932;10.884;2023-05-09T11:57:28;4.70;;;1.45;;
66721;SDS011;53633;49.932;10.884;2023-05-09T11:59:54;4.93;;;2.08;;
66721;SDS011;53633;49.932;10.884;2023-05-09T12:02:22;7.38;;;2.00;;
66721;SDS011;53633;49.932;10.884;2023-05-09T12:04:49;5.30;;;1.90;;
66721;SDS011;53633;49.932;10.884;2023-05-09T12:07:16;4.63;;;1.80;;
66721;SDS011;53633;49.932;10.884;2023-05-09T12:09:42;5.70;;;2.08;;
66721;SDS011;53633;49.932;10.884;2023-05-09T12:12:11;6.32;;;2.03;;
66721;SDS011;53633;49.932;10.884;2023-05-09T12:14:38;4.07;;;1.60;;
66721;SDS011;53633;49.932;10.884;2023-05-09T12:17:06;4.82;;;1.65;;
66721;SDS011;53633;49.932;10.884;2023-05-09T12:19:33;3.37;;;1.40;;
66721;SDS011;53633;49.932;10.884;2023-05-09T12:22:01;3.30;;;1.40;;
66721;SDS011;53633;49.932;10.884;2023-05-09T12:24:29;3.85;;;1.90;;
66721;SDS011;53633;49.932;10.884;2023-05-09T12:26:56;5.72;;;1.58;;
66721;SDS011;53633;49.932;10.884;2023-05-09T12:29:26;5.20;;;1.77;;
66721;SDS011;53633;49.932;10.884;2023-05-09T12:31:53;4.93;;;1.43;;
66721;SDS011;53633;49.932;10.884;2023-05-09T12:34:20;4.80;;;1.52;;
66721;SDS011;53633;49.932;10.884;2023-05-09T12:36:47;3.83;;;1.70;;
66721;SDS011;53633;49.932;10.884;2023-05-09T12:39:14;3.40;;;1.30;;
66721;SDS011;53633;49.932;10.884;2023-05-09T12:41:42;5.13;;;1.73;;
66721;SDS011;53633;49.932;10.884;2023-05-09T12:44:27;4.43;;;1.57;;
66721;SDS011;53633;49.932;10.884;2023-05-09T12:46:57;5.22;;;1.80;;
66721;SDS011;53633;49.932;10.884;2023-05-09T12:49:25;4.03;;;1.52;;
66721;SDS011;53633;49.932;10.884;2023-05-09T12:51:53;3.90;;;1.40;;
66721;SDS011;53633;49.932;10.884;2023-05-09T12:54:22;3.33;;;1.20;;
66721;SDS011;53633;49.932;10.884;2023-05-09T12:56:50;5.87;;;1.47;;
66721;SDS011;53633;49.932;10.884;2023-05-09T12:59:20;3.75;;;1.38;;
66721;SDS011;53633;49.932;10.884;2023-05-09T13:01:53;6.75;;;1.60;;
66721;SDS011;53633;49.932;10.884;2023-05-09T13:04:22;4.53;;;1.75;;
66721;SDS011;53633;49.932;10.884;2023-05-09T13:06:49;5.43;;;1.50;;
66721;SDS011;53633;49.932;10.884;2023-05-09T13:09:17;4.70;;;1.50;;
66721;SDS011;53633;49.932;10.884;2023-05-09T13:11:44;4.30;;;1.45;;
66721;SDS011;53633;49.932;10.884;2023-05-09T13:14:11;3.78;;;1.48;;
66721;SDS011;53633;49.932;10.884;2023-05-09T13:16:37;4.93;;;1.42;;
66721;SDS011;53633;49.932;10.884;2023-05-09T13:19:06;3.85;;;1.50;;
66721;SDS011;53633;49.932;10.884;2023-05-09T13:21:33;3.77;;;1.30;;
66721;SDS011;53633;49.932;10.884;2023-05-09T13:24:00;3.53;;;1.17;;
66721;SDS011;53633;49.932;10.884;2023-05-09T13:26:27;3.47;;;1.40;;
66721;SDS011;53633;49.932;10.884;2023-05-09T13:28:53;4.60;;;1.50;;
66721;SDS011;53633;49.932;10.884;2023-05-09T13:31:20;4.47;;;1.50;;
66721;SDS011;53633;49.932;10.884;2023-05-09T13:33:48;3.67;;;1.17;;
66721;SDS011;53633;49.932;10.884;2023-05-09T13:36:18;4.80;;;1.30;;
66721;SDS011;53633;49.932;10.884;2023-05-09T13:38:45;4.03;;;1.55;;
66721;SDS011;53633;49.932;10.884;2023-05-09T13:41:12;4.82;;;1.30;;
66721;SDS011;53633;49.932;10.884;2023-05-09T13:43:38;4.75;;;1.40;;
66721;SDS011;53633;49.932;10.884;2023-05-09T13:46:05;7.50;;;1.27;;
66721;SDS011;53633;49.932;10.884;2023-05-09T13:48:32;3.78;;;1.30;;
66721;SDS011;53633;49.932;10.884;2023-05-09T13:50:58;5.68;;;1.40;;
66721;SDS011;53633;49.932;10.884;2023-05-09T13:53:26;4.10;;;1.35;;
66721;SDS011;53633;49.932;10.884;2023-05-09T13:55:53;4.10;;;1.70;;
66721;SDS011;53633;49.932;10.884;2023-05-09T13:58:20;4.67;;;1.50;;
66721;SDS011;53633;49.932;10.884;2023-05-09T14:00:46;4.50;;;1.30;;
66721;SDS011;53633;49.932;10.884;2023-05-09T14:03:13;6.30;;;1.58;;
66721;SDS011;53633;49.932;10.884;2023-05-09T14:05:40;6.35;;;1.88;;
66721;SDS011;53633;49.932;10.884;2023-05-09T14:08:07;7.07;;;1.75;;
66721;SDS011;53633;49.932;10.884;2023-05-09T14:10:35;3.43;;;1.37;;
66721;SDS011;53633;49.932;10.884;2023-05-09T14:13:01;4.75;;;1.40;;
66721;SDS011;53633;49.932;10.884;2023-05-09T14:15:28;4.93;;;1.58;;
66721;SDS011;53633;49.932;10.884;2023-05-09T14:17:55;6.75;;;1.30;;
66721;SDS011;53633;49.932;10.884;2023-05-09T14:20:22;4.22;;;1.67;;
66721;SDS011;53633;49.932;10.884;2023-05-09T14:22:48;3.53;;;1.23;;
66721;SDS011;53633;49.932;10.884;2023-05-09T14:25:15;3.95;;;1.50;;
66721;SDS011;53633;49.932;10.884;2023-05-09T14:27:43;4.40;;;1.80;;
66721;SDS011;53633;49.932;10.884;2023-05-09T14:30:10;4.60;;;1.42;;
66721;SDS011;53633;49.932;10.884;2023-05-09T14:32:38;4.40;;;1.20;;
66721;SDS011;53633;49.932;10.884;2023-05-09T14:35:05;4.63;;;1.63;;
66721;SDS011;53633;49.932;10.884;2023-05-09T14:37:32;4.10;;;1.67;;
66721;SDS011;53633;49.932;10.884;2023-05-09T14:39:59;7.72;;;2.13;;